^^
Datos históricos de la estación: Murcia-Puente Tocinos
Diario Informe para Junio 28, 2019 Unidades:  Ambas    Ingés   Métrico
Diario Semanal Mensual Anual
  Máxima: Mínima: Promedio:
Temperatura: 89.8 °F /  32.1 °C 76.6 °F /  24.8 °C 83.7 °F /  28.7 °C
Punto de rocio: 68.9 °F /  20.5 °C 51.6 °F /  10.9 °C 56.5 °F /  13.6 °C
Humedad: 77% 29% 40%
Velocidad viento: 13mph /  20.9km/h - 6.1mph /  9.8km/h
Racha viento: 21.9mph /  35.2km/h - -
Viento- - SSO
Presión: 29.8 in /  1009.2 hPa 29.7 in /  1006.3 hPa -
Precipitación: 0 in /  0.0 mm    
 
 
Tabla de datos para Junio 28, 2019
Hora Temperatura Punto de rocio Presión Viento Velocidad viento Racha viento Humedad Intensidad lluvia(por hora) Nubes
00:04 85.6 °F /  29.8 °C 57 °F /  13.9 °C 29.7in /  1006.4hPa NO 10mph /  16.1km/h 18.4mph /  29.6km/h 38% 0in /  0.0mm
00:09 85.5 °F /  29.7 °C 57 °F /  13.9 °C 29.7in /  1006.4hPa NO 12.3mph /  19.8km/h 16.1mph /  25.9km/h 38% 0in /  0.0mm
00:14 85.3 °F /  29.6 °C 56.8 °F /  13.8 °C 29.7in /  1006.4hPa ONO 12.3mph /  19.8km/h 13.8mph /  22.2km/h 38% 0in /  0.0mm
00:19 84.9 °F /  29.4 °C 57.2 °F /  14 °C 29.7in /  1006.3hPa ONO 10.2mph /  16.4km/h 18.4mph /  29.6km/h 39% 0in /  0.0mm
00:24 84.9 °F /  29.4 °C 57.2 °F /  14 °C 29.7in /  1006.3hPa ONO 10.2mph /  16.4km/h 18.4mph /  29.6km/h 39% 0in /  0.0mm
00:29 84.9 °F /  29.4 °C 57.2 °F /  14 °C 29.7in /  1006.3hPa NO 13mph /  20.9km/h 21.9mph /  35.2km/h 39% 0in /  0.0mm
00:34 84.9 °F /  29.4 °C 57.2 °F /  14 °C 29.7in /  1006.3hPa ONO 13mph /  20.9km/h 17.3mph /  27.8km/h 39% 0in /  0.0mm
00:39 84.7 °F /  29.3 °C 57 °F /  13.9 °C 29.7in /  1006.3hPa NO 10.2mph /  16.4km/h 12.7mph /  20.4km/h 39% 0in /  0.0mm
00:44 84.7 °F /  29.3 °C 57 °F /  13.9 °C 29.7in /  1006.3hPa NO 10.2mph /  16.4km/h 15mph /  24.1km/h 39% 0in /  0.0mm
00:49 84.6 °F /  29.2 °C 56.8 °F /  13.8 °C 29.7in /  1006.5hPa Oeste 9.2mph /  14.8km/h 20.7mph /  33.3km/h 39% 0in /  0.0mm
00:54 84.4 °F /  29.1 °C 56.7 °F /  13.7 °C 29.7in /  1006.5hPa ONO 9.2mph /  14.8km/h 20.7mph /  33.3km/h 39% 0in /  0.0mm
00:59 84.4 °F /  29.1 °C 56.7 °F /  13.7 °C 29.7in /  1006.5hPa ONO 12.3mph /  19.8km/h 13.8mph /  22.2km/h 39% 0in /  0.0mm
01:04 84 °F /  28.9 °C 57 °F /  13.9 °C 29.7in /  1006.3hPa ONO 12.3mph /  19.8km/h 18.4mph /  29.6km/h 40% 0in /  0.0mm
01:09 84 °F /  28.9 °C 56.5 °F /  13.6 °C 29.7in /  1006.3hPa ONO 11.4mph /  18.3km/h 17.3mph /  27.8km/h 39% 0in /  0.0mm
01:14 84 °F /  28.9 °C 57 °F /  13.9 °C 29.7in /  1006.3hPa ONO 11.4mph /  18.3km/h 16.1mph /  25.9km/h 40% 0in /  0.0mm
01:19 83.8 °F /  28.8 °C 56.1 °F /  13.4 °C 29.7in /  1006.5hPa ONO 10.2mph /  16.4km/h 13.8mph /  22.2km/h 39% 0in /  0.0mm
01:24 83.7 °F /  28.7 °C 56.1 °F /  13.4 °C 29.7in /  1006.5hPa NO 10.2mph /  16.4km/h 15mph /  24.1km/h 39% 0in /  0.0mm
01:29 83.7 °F /  28.7 °C 56.1 °F /  13.4 °C 29.7in /  1006.5hPa Oeste 10mph /  16.1km/h 16.1mph /  25.9km/h 39% 0in /  0.0mm
01:34 83.7 °F /  28.7 °C 56.1 °F /  13.4 °C 29.7in /  1006.6hPa Oeste 10mph /  16.1km/h 16.1mph /  25.9km/h 39% 0in /  0.0mm
01:39 83.7 °F /  28.7 °C 55.4 °F /  13 °C 29.7in /  1006.6hPa ONO 10.7mph /  17.2km/h 16.1mph /  25.9km/h 38% 0in /  0.0mm
01:44 83.7 °F /  28.7 °C 55.4 °F /  13 °C 29.7in /  1006.6hPa OSO 10.7mph /  17.2km/h 13.8mph /  22.2km/h 38% 0in /  0.0mm
01:49 83.5 °F /  28.6 °C 55.2 °F /  12.9 °C 29.7in /  1006.6hPa ONO 10.2mph /  16.4km/h 17.3mph /  27.8km/h 38% 0in /  0.0mm
01:54 83.5 °F /  28.6 °C 55.2 °F /  12.9 °C 29.7in /  1006.6hPa OSO 10.2mph /  16.4km/h 10.4mph /  16.7km/h 38% 0in /  0.0mm
01:59 83.3 °F /  28.5 °C 55 °F /  12.8 °C 29.7in /  1006.6hPa ONO 7.6mph /  12.2km/h 17.3mph /  27.8km/h 38% 0in /  0.0mm
02:04 83.1 °F /  28.4 °C 54.9 °F /  12.7 °C 29.7in /  1006.6hPa OSO 7.6mph /  12.2km/h 8.1mph /  13km/h 38% 0in /  0.0mm
02:09 83.1 °F /  28.4 °C 54.9 °F /  12.7 °C 29.7in /  1006.6hPa Oeste 7.4mph /  11.9km/h 9.2mph /  14.8km/h 38% 0in /  0.0mm
02:14 82.9 °F /  28.3 °C 54.7 °F /  12.6 °C 29.7in /  1006.6hPa ONO 7.4mph /  11.9km/h 11.5mph /  18.5km/h 38% 0in /  0.0mm
02:19 82.8 °F /  28.2 °C 54.7 °F /  12.6 °C 29.7in /  1006.5hPa ONO 6.4mph /  10.3km/h 10.2mph /  16.4km/h 38% 0in /  0.0mm
02:24 82.8 °F /  28.2 °C 55.2 °F /  12.9 °C 29.7in /  1006.5hPa ONO 6.4mph /  10.3km/h 8.1mph /  13km/h 39% 0in /  0.0mm
02:29 82.6 °F /  28.1 °C 55 °F /  12.8 °C 29.7in /  1006.5hPa ONO 5.4mph /  8.7km/h 3.6mph /  5.8km/h 39% 0in /  0.0mm
02:34 82.6 °F /  28.1 °C 55 °F /  12.8 °C 29.7in /  1006.6hPa OSO 5.4mph /  8.7km/h 3.5mph /  5.6km/h 39% 0in /  0.0mm
02:39 82.4 °F /  28 °C 55 °F /  12.8 °C 29.7in /  1006.6hPa OSO 2.4mph /  3.9km/h 5.9mph /  9.5km/h 39% 0in /  0.0mm
02:44 82.2 °F /  27.9 °C 54.9 °F /  12.7 °C 29.7in /  1006.6hPa SSO 2.4mph /  3.9km/h 4.7mph /  7.6km/h 39% 0in /  0.0mm
02:49 82.2 °F /  27.9 °C 54.9 °F /  12.7 °C 29.7in /  1006.7hPa OSO 4mph /  6.4km/h 6.9mph /  11.1km/h 39% 0in /  0.0mm
02:54 82.2 °F /  27.9 °C 54.9 °F /  12.7 °C 29.7in /  1006.7hPa OSO 4mph /  6.4km/h 5.4mph /  8.7km/h 39% 0in /  0.0mm
02:59 82 °F /  27.8 °C 54.7 °F /  12.6 °C 29.7in /  1006.7hPa SO 4.7mph /  7.6km/h 6.9mph /  11.1km/h 39% 0in /  0.0mm
03:04 82 °F /  27.8 °C 54.7 °F /  12.6 °C 29.7in /  1006.4hPa OSO 4.7mph /  7.6km/h 11.5mph /  18.5km/h 39% 0in /  0.0mm
03:09 82 °F /  27.8 °C 54.7 °F /  12.6 °C 29.7in /  1006.4hPa Oeste 6.4mph /  10.3km/h 8.1mph /  13km/h 39% 0in /  0.0mm
03:14 81.9 °F /  27.7 °C 54.5 °F /  12.5 °C 29.7in /  1006.4hPa OSO 6.4mph /  10.3km/h 10.4mph /  16.7km/h 39% 0in /  0.0mm
03:19 81.7 °F /  27.6 °C 54.3 °F /  12.4 °C 29.7in /  1006.4hPa Oeste 6.2mph /  10km/h 10.4mph /  16.7km/h 39% 0in /  0.0mm
03:24 81.5 °F /  27.5 °C 54.1 °F /  12.3 °C 29.7in /  1006.4hPa OSO 6.2mph /  10km/h 8.1mph /  13km/h 39% 0in /  0.0mm
03:29 81.3 °F /  27.4 °C 54.7 °F /  12.6 °C 29.7in /  1006.4hPa OSO 6.2mph /  10km/h 9.2mph /  14.8km/h 40% 0in /  0.0mm
03:34 81.1 °F /  27.3 °C 54.5 °F /  12.5 °C 29.7in /  1006.4hPa Oeste 6.2mph /  10km/h 6.9mph /  11.1km/h 40% 0in /  0.0mm
03:39 81.1 °F /  27.3 °C 54.5 °F /  12.5 °C 29.7in /  1006.4hPa NO 5.2mph /  8.4km/h 6.9mph /  11.1km/h 40% 0in /  0.0mm
03:44 81 °F /  27.2 °C 54.3 °F /  12.4 °C 29.7in /  1006.4hPa NO 5.2mph /  8.4km/h 2.4mph /  3.9km/h 40% 0in /  0.0mm
03:49 81 °F /  27.2 °C 54.3 °F /  12.4 °C 29.7in /  1006.4hPa NO 2mph /  3.2km/h 3.5mph /  5.6km/h 40% 0in /  0.0mm
03:54 80.8 °F /  27.1 °C 54.9 °F /  12.7 °C 29.7in /  1006.4hPa Oeste 2mph /  3.2km/h 3.6mph /  5.8km/h 41% 0in /  0.0mm
03:59 80.4 °F /  26.9 °C 54.7 °F /  12.6 °C 29.7in /  1006.4hPa NO 2.4mph /  3.9km/h 5.8mph /  9.3km/h 41% 0in /  0.0mm
04:04 80.2 °F /  26.8 °C 55 °F /  12.8 °C 29.7in /  1006.5hPa Oeste 2.4mph /  3.9km/h 4.3mph /  6.9km/h 42% 0in /  0.0mm
04:09 80.1 °F /  26.7 °C 54.9 °F /  12.7 °C 29.7in /  1006.5hPa SO 2.9mph /  4.7km/h 5.8mph /  9.3km/h 42% 0in /  0.0mm
04:14 80.1 °F /  26.7 °C 54.9 °F /  12.7 °C 29.7in /  1006.5hPa Sur 2.9mph /  4.7km/h 3.5mph /  5.6km/h 42% 0in /  0.0mm
04:19 80.1 °F /  26.7 °C 54.9 °F /  12.7 °C 29.7in /  1006.4hPa SO 2.4mph /  3.9km/h 6.9mph /  11.1km/h 42% 0in /  0.0mm
04:24 80.1 °F /  26.7 °C 54.9 °F /  12.7 °C 29.7in /  1006.4hPa SSE 2.4mph /  3.9km/h 8.1mph /  13km/h 42% 0in /  0.0mm
04:29 80.1 °F /  26.7 °C 54.1 °F /  12.3 °C 29.7in /  1006.4hPa SO 5.2mph /  8.4km/h 5.8mph /  9.3km/h 41% 0in /  0.0mm
04:34 80.1 °F /  26.7 °C 54.1 °F /  12.3 °C 29.7in /  1006.5hPa Sur 5.2mph /  8.4km/h 6.9mph /  11.1km/h 41% 0in /  0.0mm
04:39 79.9 °F /  26.6 °C 54.7 °F /  12.6 °C 29.7in /  1006.5hPa Oeste 4.3mph /  6.9km/h 4.6mph /  7.4km/h 42% 0in /  0.0mm
04:44 79.9 °F /  26.6 °C 54.7 °F /  12.6 °C 29.7in /  1006.5hPa ONO 4.3mph /  6.9km/h 4.3mph /  6.9km/h 42% 0in /  0.0mm
04:49 79.9 °F /  26.6 °C 55.4 °F /  13 °C 29.7in /  1006.5hPa ONO 3.6mph /  5.8km/h 5.8mph /  9.3km/h 43% 0in /  0.0mm
04:54 79.9 °F /  26.6 °C 55.4 °F /  13 °C 29.7in /  1006.5hPa Oeste 3.6mph /  5.8km/h 4.6mph /  7.4km/h 43% 0in /  0.0mm
04:59 79.7 °F /  26.5 °C 55.2 °F /  12.9 °C 29.7in /  1006.5hPa NO 3.6mph /  5.8km/h 4.6mph /  7.4km/h 43% 0in /  0.0mm
05:04 79.5 °F /  26.4 °C 55 °F /  12.8 °C 29.7in /  1006.6hPa Oeste 3.6mph /  5.8km/h 5.8mph /  9.3km/h 43% 0in /  0.0mm
05:09 79.7 °F /  26.5 °C 55.2 °F /  12.9 °C 29.7in /  1006.6hPa ONO 4.3mph /  6.9km/h 8.1mph /  13km/h 43% 0in /  0.0mm
05:14 79.7 °F /  26.5 °C 55.2 °F /  12.9 °C 29.7in /  1006.6hPa Oeste 4.3mph /  6.9km/h 8.1mph /  13km/h 43% 0in /  0.0mm
05:19 79.5 °F /  26.4 °C 55 °F /  12.8 °C 29.7in /  1006.6hPa OSO 4.7mph /  7.6km/h 5.8mph /  9.3km/h 43% 0in /  0.0mm
05:24 79.3 °F /  26.3 °C 54.9 °F /  12.7 °C 29.7in /  1006.6hPa Oeste 4.7mph /  7.6km/h 6.9mph /  11.1km/h 43% 0in /  0.0mm
05:29 79.3 °F /  26.3 °C 54.9 °F /  12.7 °C 29.7in /  1006.6hPa Oeste 3.6mph /  5.8km/h 11.2mph /  18km/h 43% 0in /  0.0mm
05:34 79.5 °F /  26.4 °C 55 °F /  12.8 °C 29.7in /  1006.7hPa Oeste 3.6mph /  5.8km/h 6.9mph /  11.1km/h 43% 0in /  0.0mm
05:39 79.5 °F /  26.4 °C 55 °F /  12.8 °C 29.7in /  1006.7hPa NO 5.2mph /  8.4km/h 5.8mph /  9.3km/h 43% 0in /  0.0mm
05:44 79.3 °F /  26.3 °C 54.9 °F /  12.7 °C 29.7in /  1006.7hPa ONO 5.2mph /  8.4km/h 5.8mph /  9.3km/h 43% 0in /  0.0mm
05:49 79.3 °F /  26.3 °C 55.6 °F /  13.1 °C 29.7in /  1006.9hPa NO 4.3mph /  6.9km/h 9.2mph /  14.8km/h 44% 0in /  0.0mm
05:54 79.3 °F /  26.3 °C 55.6 °F /  13.1 °C 29.7in /  1006.9hPa ONO 4.3mph /  6.9km/h 6.9mph /  11.1km/h 44% 0in /  0.0mm
05:59 79.2 °F /  26.2 °C 55.4 °F /  13 °C 29.7in /  1006.9hPa NNO 5.4mph /  8.7km/h 9.2mph /  14.8km/h 44% 0in /  0.0mm
06:04 79.2 °F /  26.2 °C 55.4 °F /  13 °C 29.7in /  1006.9hPa ONO 5.4mph /  8.7km/h 8.1mph /  13km/h 44% 0in /  0.0mm
06:09 79.2 °F /  26.2 °C 55.4 °F /  13 °C 29.7in /  1006.9hPa SO 5.4mph /  8.7km/h 4.6mph /  7.4km/h 44% 0in /  0.0mm
06:14 79 °F /  26.1 °C 55.2 °F /  12.9 °C 29.7in /  1006.9hPa OSO 5.4mph /  8.7km/h 4.6mph /  7.4km/h 44% 0in /  0.0mm
06:19 78.8 °F /  26 °C 55 °F /  12.8 °C 29.7in /  1007.1hPa OSO 2.4mph /  3.9km/h 3.5mph /  5.6km/h 44% 0in /  0.0mm
06:24 78.6 °F /  25.9 °C 54.9 °F /  12.7 °C 29.7in /  1007.1hPa SO 2.4mph /  3.9km/h 3.5mph /  5.6km/h 44% 0in /  0.0mm
06:29 78.6 °F /  25.9 °C 54.9 °F /  12.7 °C 29.7in /  1007.1hPa SO 2mph /  3.2km/h   44% 0in /  0.0mm
06:34 78.6 °F /  25.9 °C 55.6 °F /  13.1 °C 29.7in /  1007.3hPa SO 2mph /  3.2km/h 2.3mph /  3.7km/h 45% 0in /  0.0mm
06:39 78.4 °F /  25.8 °C 54.1 °F /  12.3 °C 29.7in /  1007.3hPa SO 1.8mph /  2.9km/h 4.6mph /  7.4km/h 43% 0in /  0.0mm
06:44 78.4 °F /  25.8 °C 54.1 °F /  12.3 °C 29.7in /  1007.3hPa SO 1.8mph /  2.9km/h 4.6mph /  7.4km/h 43% 0in /  0.0mm
06:49 78.4 °F /  25.8 °C 54.1 °F /  12.3 °C 29.8in /  1007.5hPa SSO 2mph /  3.2km/h 3.6mph /  5.8km/h 43% 0in /  0.0mm
06:54 78.4 °F /  25.8 °C 53.4 °F /  11.9 °C 29.8in /  1007.5hPa SSO 2mph /  3.2km/h 4.6mph /  7.4km/h 42% 0in /  0.0mm
06:59 78.4 °F /  25.8 °C 54.1 °F /  12.3 °C 29.8in /  1007.5hPa SO 3.6mph /  5.8km/h 5.8mph /  9.3km/h 43% 0in /  0.0mm
07:04 78.4 °F /  25.8 °C 53.4 °F /  11.9 °C 29.8in /  1007.5hPa SO 3.6mph /  5.8km/h 6.2mph /  10km/h 42% 0in /  0.0mm
07:09 78.4 °F /  25.8 °C 54.1 °F /  12.3 °C 29.8in /  1007.5hPa SO 4.3mph /  6.9km/h 6.9mph /  11.1km/h 43% 0in /  0.0mm
07:14 78.3 °F /  25.7 °C 54 °F /  12.2 °C 29.8in /  1007.5hPa Oeste 4.3mph /  6.9km/h 6.9mph /  11.1km/h 43% 0in /  0.0mm
07:19 78.3 °F /  25.7 °C 54 °F /  12.2 °C 29.8in /  1007.6hPa SSO 5.2mph /  8.4km/h 5.8mph /  9.3km/h 43% 0in /  0.0mm
07:24 78.3 °F /  25.7 °C 54 °F /  12.2 °C 29.8in /  1007.6hPa Oeste 5.2mph /  8.4km/h 2.4mph /  3.9km/h 43% 0in /  0.0mm
07:29 78.1 °F /  25.6 °C 53.8 °F /  12.1 °C 29.8in /  1007.6hPa SO 2mph /  3.2km/h 2.3mph /  3.7km/h 43% 0in /  0.0mm
07:34 78.3 °F /  25.7 °C 54 °F /  12.2 °C 29.8in /  1007.9hPa NO 2mph /  3.2km/h 2.3mph /  3.7km/h 43% 0in /  0.0mm
07:39 78.3 °F /  25.7 °C 54 °F /  12.2 °C 29.8in /  1007.9hPa OSO 1.4mph /  2.3km/h 4.6mph /  7.4km/h 43% 0in /  0.0mm
07:44 78.1 °F /  25.6 °C 53.8 °F /  12.1 °C 29.8in /  1007.9hPa ONO 1.4mph /  2.3km/h 5.8mph /  9.3km/h 43% 0in /  0.0mm
07:49 78.1 °F /  25.6 °C 54.3 °F /  12.4 °C 29.8in /  1008.0hPa OSO 2.4mph /  3.9km/h 4.6mph /  7.4km/h 44% 0in /  0.0mm
07:54 77.7 °F /  25.4 °C 54.1 °F /  12.3 °C 29.8in /  1008.0hPa OSO 2.4mph /  3.9km/h 4.6mph /  7.4km/h 44% 0in /  0.0mm
07:59 77.7 °F /  25.4 °C 54.1 °F /  12.3 °C 29.8in /  1008.0hPa SO 3.6mph /  5.8km/h 4.6mph /  7.4km/h 44% 0in /  0.0mm
08:04 77.5 °F /  25.3 °C 54 °F /  12.2 °C 29.8in /  1008.1hPa SSO 3.6mph /  5.8km/h 4.6mph /  7.4km/h 44% 0in /  0.0mm
08:09 77.7 °F /  25.4 °C 54.7 °F /  12.6 °C 29.8in /  1008.1hPa SSO 3.1mph /  5km/h 4.7mph /  7.6km/h 45% 0in /  0.0mm
08:14 77.7 °F /  25.4 °C 54.7 °F /  12.6 °C 29.8in /  1008.1hPa SSO 3.1mph /  5km/h 2.3mph /  3.7km/h 45% 0in /  0.0mm
08:19 78.1 °F /  25.6 °C 55 °F /  12.8 °C 29.8in /  1008.2hPa OSO 2mph /  3.2km/h 2.4mph /  3.9km/h 45% 0in /  0.0mm
08:24 78.4 °F /  25.8 °C 55.9 °F /  13.3 °C 29.8in /  1008.2hPa SE 2mph /  3.2km/h 3.5mph /  5.6km/h 46% 0in /  0.0mm
08:29 78.8 °F /  26 °C 55.8 °F /  13.2 °C 29.8in /  1008.2hPa Sur 2mph /  3.2km/h 5.8mph /  9.3km/h 45% 0in /  0.0mm
08:34 79 °F /  26.1 °C 55.8 °F /  13.2 °C 29.8in /  1008.4hPa SSE 2mph /  3.2km/h 6.9mph /  11.1km/h 45% 0in /  0.0mm
08:39 78.8 °F /  26 °C 55.8 °F /  13.2 °C 29.8in /  1008.4hPa SSE 4.7mph /  7.6km/h 5.8mph /  9.3km/h 45% 0in /  0.0mm
08:44 79 °F /  26.1 °C 55.2 °F /  12.9 °C 29.8in /  1008.4hPa SSO 4.7mph /  7.6km/h 6.2mph /  10km/h 44% 0in /  0.0mm
08:49 79.2 °F /  26.2 °C 55.4 °F /  13 °C 29.8in /  1008.5hPa SO 4mph /  6.4km/h 5.2mph /  8.4km/h 44% 0in /  0.0mm
08:54 79.5 °F /  26.4 °C 55.8 °F /  13.2 °C 29.8in /  1008.5hPa ONO 4mph /  6.4km/h 9.2mph /  14.8km/h 44% 0in /  0.0mm
08:59 79.9 °F /  26.6 °C 55.9 °F /  13.3 °C 29.8in /  1008.5hPa OSO 4.3mph /  6.9km/h 6.9mph /  11.1km/h 44% 0in /  0.0mm
09:04 80.1 °F /  26.7 °C 56.1 °F /  13.4 °C 29.8in /  1008.5hPa SO 4.3mph /  6.9km/h 10.4mph /  16.7km/h 44% 0in /  0.0mm
09:09 80.2 °F /  26.8 °C 56.3 °F /  13.5 °C 29.8in /  1008.5hPa OSO 4.7mph /  7.6km/h 8.1mph /  13km/h 44% 0in /  0.0mm
09:14 80.4 °F /  26.9 °C 56.5 °F /  13.6 °C 29.8in /  1008.5hPa NO 4.7mph /  7.6km/h 4.6mph /  7.4km/h 44% 0in /  0.0mm
09:19 81 °F /  27.2 °C 57 °F /  13.9 °C 29.8in /  1008.5hPa NO 4.7mph /  7.6km/h 8.1mph /  13km/h 44% 0in /  0.0mm
09:24 81 °F /  27.2 °C 56.5 °F /  13.6 °C 29.8in /  1008.5hPa ONO 4.7mph /  7.6km/h 5.8mph /  9.3km/h 43% 0in /  0.0mm
09:29 81.1 °F /  27.3 °C 56.5 °F /  13.6 °C 29.8in /  1008.5hPa NO 5.4mph /  8.7km/h 8.5mph /  13.7km/h 43% 0in /  0.0mm
09:34 81.1 °F /  27.3 °C 56.5 °F /  13.6 °C 29.8in /  1008.6hPa ONO 5.4mph /  8.7km/h 15mph /  24.1km/h 43% 0in /  0.0mm
09:39 81.5 °F /  27.5 °C 56.1 °F /  13.4 °C 29.8in /  1008.6hPa OSO 7.6mph /  12.2km/h 11.5mph /  18.5km/h 42% 0in /  0.0mm
09:44 81.7 °F /  27.6 °C 56.5 °F /  13.6 °C 29.8in /  1008.6hPa ONO 7.6mph /  12.2km/h 13.8mph /  22.2km/h 42% 0in /  0.0mm
09:49 81.7 °F /  27.6 °C 56.5 °F /  13.6 °C 29.8in /  1008.7hPa Oeste 9.7mph /  15.6km/h 11.5mph /  18.5km/h 42% 0in /  0.0mm
09:54 82 °F /  27.8 °C 55.9 °F /  13.3 °C 29.8in /  1008.7hPa ONO 9.7mph /  15.6km/h 11.5mph /  18.5km/h 41% 0in /  0.0mm
09:59 82 °F /  27.8 °C 55.9 °F /  13.3 °C 29.8in /  1008.7hPa Oeste 6.2mph /  10km/h 8.5mph /  13.7km/h 41% 0in /  0.0mm
10:04 82.2 °F /  27.9 °C 55.6 °F /  13.1 °C 29.8in /  1008.7hPa NO 6.2mph /  10km/h 6.9mph /  11.1km/h 40% 0in /  0.0mm
10:09 82.2 °F /  27.9 °C 55.6 °F /  13.1 °C 29.8in /  1008.7hPa ONO 5.9mph /  9.5km/h 9.7mph /  15.6km/h 40% 0in /  0.0mm
10:14 82.2 °F /  27.9 °C 55.6 °F /  13.1 °C 29.8in /  1008.7hPa Oeste 5.9mph /  9.5km/h 11.5mph /  18.5km/h 40% 0in /  0.0mm
10:19 82.2 °F /  27.9 °C 55.6 °F /  13.1 °C 29.8in /  1008.7hPa OSO 6.2mph /  10km/h 6.9mph /  11.1km/h 40% 0in /  0.0mm
10:24 82.4 °F /  28 °C 55.8 °F /  13.2 °C 29.8in /  1008.7hPa NNO 6.2mph /  10km/h 4.6mph /  7.4km/h 40% 0in /  0.0mm
10:29 82.6 °F /  28.1 °C 55.8 °F /  13.2 °C 29.8in /  1008.7hPa NNE 4.3mph /  6.9km/h 5.8mph /  9.3km/h 40% 0in /  0.0mm
10:34 82.9 °F /  28.3 °C 55.4 °F /  13 °C 29.8in /  1008.7hPa NO 4.3mph /  6.9km/h 4.6mph /  7.4km/h 39% 0in /  0.0mm
10:39 83.7 °F /  28.7 °C 56.1 °F /  13.4 °C 29.8in /  1008.7hPa ENE 2.9mph /  4.7km/h 4.6mph /  7.4km/h 39% 0in /  0.0mm
10:44 84 °F /  28.9 °C 55.8 °F /  13.2 °C 29.8in /  1008.7hPa OSO 2.9mph /  4.7km/h 4.6mph /  7.4km/h 38% 0in /  0.0mm
10:49 84.2 °F /  29 °C 55 °F /  12.8 °C 29.8in /  1008.7hPa OSO 3.1mph /  5km/h 4.6mph /  7.4km/h 37% 0in /  0.0mm
10:54 84.4 °F /  29.1 °C 55.2 °F /  12.9 °C 29.8in /  1008.7hPa SO 3.1mph /  5km/h 4.7mph /  7.6km/h 37% 0in /  0.0mm
10:59 84.4 °F /  29.1 °C 55.2 °F /  12.9 °C 29.8in /  1008.7hPa SSO 2.4mph /  3.9km/h 5.8mph /  9.3km/h 37% 0in /  0.0mm
11:04 84.6 °F /  29.2 °C 55.4 °F /  13 °C 29.8in /  1008.7hPa Oeste 2.4mph /  3.9km/h 6.9mph /  11.1km/h 37% 0in /  0.0mm
11:09 84.7 °F /  29.3 °C 55.6 °F /  13.1 °C 29.8in /  1008.7hPa SE 3.1mph /  5km/h 4.6mph /  7.4km/h 37% 0in /  0.0mm
11:14 85.1 °F /  29.5 °C 55 °F /  12.8 °C 29.8in /  1008.7hPa SSO 3.1mph /  5km/h 2.3mph /  3.7km/h 36% 0in /  0.0mm
11:19 85.6 °F /  29.8 °C 55.6 °F /  13.1 °C 29.8in /  1008.7hPa ENE 2.9mph /  4.7km/h 4.6mph /  7.4km/h 36% 0in /  0.0mm
11:24 86 °F /  30 °C 55.2 °F /  12.9 °C 29.8in /  1008.7hPa NNO 2.9mph /  4.7km/h 8.1mph /  13km/h 35% 0in /  0.0mm
11:29 86.4 °F /  30.2 °C 55.6 °F /  13.1 °C 29.8in /  1008.7hPa NNO 3.1mph /  5km/h 5.8mph /  9.3km/h 35% 0in /  0.0mm
11:34 86.4 °F /  30.2 °C 55.6 °F /  13.1 °C 29.8in /  1008.6hPa ENE 3.1mph /  5km/h 5.4mph /  8.7km/h 35% 0in /  0.0mm
11:39 86.4 °F /  30.2 °C 55.6 °F /  13.1 °C 29.8in /  1008.6hPa NE 2.9mph /  4.7km/h 5.8mph /  9.3km/h 35% 0in /  0.0mm
11:44 86.5 °F /  30.3 °C 54.9 °F /  12.7 °C 29.8in /  1008.6hPa ONO 2.9mph /  4.7km/h 5.8mph /  9.3km/h 34% 0in /  0.0mm
11:49 86.5 °F /  30.3 °C 54.9 °F /  12.7 °C 29.8in /  1008.6hPa SSO 3.1mph /  5km/h 2.3mph /  3.7km/h 34% 0in /  0.0mm
11:54 86.7 °F /  30.4 °C 55 °F /  12.8 °C 29.8in /  1008.6hPa SE 3.1mph /  5km/h 4.6mph /  7.4km/h 34% 0in /  0.0mm
11:59 86.9 °F /  30.5 °C 54.3 °F /  12.4 °C 29.8in /  1008.6hPa Sur 2.9mph /  4.7km/h 6.9mph /  11.1km/h 33% 0in /  0.0mm
12:04 86.7 °F /  30.4 °C 54.1 °F /  12.3 °C 29.8in /  1008.5hPa SSO 2.9mph /  4.7km/h 4.6mph /  7.4km/h 33% 0in /  0.0mm
12:09 86.7 °F /  30.4 °C 53.2 °F /  11.8 °C 29.8in /  1008.5hPa SE 4mph /  6.4km/h 8.1mph /  13km/h 32% 0in /  0.0mm
12:14 86.7 °F /  30.4 °C 53.2 °F /  11.8 °C 29.8in /  1008.5hPa NO 4mph /  6.4km/h 4.6mph /  7.4km/h 32% 0in /  0.0mm
12:19 86.7 °F /  30.4 °C 54.1 °F /  12.3 °C 29.8in /  1008.5hPa NO 3.1mph /  5km/h 4.6mph /  7.4km/h 33% 0in /  0.0mm
12:24 86.5 °F /  30.3 °C 53.2 °F /  11.8 °C 29.8in /  1008.5hPa OSO 3.1mph /  5km/h 4.6mph /  7.4km/h 32% 0in /  0.0mm
12:29 87.1 °F /  30.6 °C 53.6 °F /  12 °C 29.8in /  1008.5hPa NE 3.1mph /  5km/h 5.8mph /  9.3km/h 32% 0in /  0.0mm
12:34 87.4 °F /  30.8 °C 52.2 °F /  11.2 °C 29.8in /  1008.4hPa SE 3.1mph /  5km/h 6.9mph /  11.1km/h 30% 0in /  0.0mm
12:39 87.6 °F /  30.9 °C 52.3 °F /  11.3 °C 29.8in /  1008.4hPa Este 4mph /  6.4km/h 5.8mph /  9.3km/h 30% 0in /  0.0mm
12:44 87.6 °F /  30.9 °C 52.3 °F /  11.3 °C 29.8in /  1008.4hPa SSO 4mph /  6.4km/h 4.6mph /  7.4km/h 30% 0in /  0.0mm
12:49 88 °F /  31.1 °C 51.6 °F /  10.9 °C 29.8in /  1008.3hPa ESE 3.1mph /  5km/h 6.9mph /  11.1km/h 29% 0in /  0.0mm
12:54 88 °F /  31.1 °C 52.7 °F /  11.5 °C 29.8in /  1008.3hPa Este 3.1mph /  5km/h 5.8mph /  9.3km/h 30% 0in /  0.0mm
12:59 88 °F /  31.1 °C 52.7 °F /  11.5 °C 29.8in /  1008.3hPa Este 4.3mph /  6.9km/h 4.3mph /  6.9km/h 30% 0in /  0.0mm
13:04 88.3 °F /  31.3 °C 52 °F /  11.1 °C 29.8in /  1008.3hPa Oeste 4.3mph /  6.9km/h 5.8mph /  9.3km/h 29% 0in /  0.0mm
13:09 88.3 °F /  31.3 °C 52 °F /  11.1 °C 29.8in /  1008.3hPa SE 2.9mph /  4.7km/h 2.3mph /  3.7km/h 29% 0in /  0.0mm
13:14 88.5 °F /  31.4 °C 52.2 °F /  11.2 °C 29.8in /  1008.3hPa ONO 2.9mph /  4.7km/h 6.9mph /  11.1km/h 29% 0in /  0.0mm
13:19 88.5 °F /  31.4 °C 53.1 °F /  11.7 °C 29.8in /  1008.1hPa NNO 3.6mph /  5.8km/h 4.6mph /  7.4km/h 30% 0in /  0.0mm
13:24 88.9 °F /  31.6 °C 52.5 °F /  11.4 °C 29.8in /  1008.1hPa SO 3.6mph /  5.8km/h 4.6mph /  7.4km/h 29% 0in /  0.0mm
13:29 89.2 °F /  31.8 °C 52.9 °F /  11.6 °C 29.8in /  1008.1hPa SO 2.9mph /  4.7km/h 5.8mph /  9.3km/h 29% 0in /  0.0mm
13:34 89.4 °F /  31.9 °C 53.1 °F /  11.7 °C 29.8in /  1007.9hPa Oeste 2.9mph /  4.7km/h 3.5mph /  5.6km/h 29% 0in /  0.0mm
13:39 89.8 °F /  32.1 °C 53.2 °F /  11.8 °C 29.8in /  1007.9hPa ESE 3.1mph /  5km/h 4.7mph /  7.6km/h 29% 0in /  0.0mm
13:44 89.4 °F /  31.9 °C 53.1 °F /  11.7 °C 29.8in /  1007.9hPa SE 3.1mph /  5km/h 4.6mph /  7.4km/h 29% 0in /  0.0mm
13:49 89.4 °F /  31.9 °C 59 °F /  15 °C 29.8in /  1007.9hPa ESE 4mph /  6.4km/h 16.1mph /  25.9km/h 36% 0in /  0.0mm
13:54 88.7 °F /  31.5 °C 60.6 °F /  15.9 °C 29.8in /  1007.9hPa SE 4mph /  6.4km/h 12.7mph /  20.4km/h 39% 0in /  0.0mm
13:59 88.7 °F /  31.5 °C 59.2 °F /  15.1 °C 29.8in /  1007.9hPa SE 9.2mph /  14.8km/h 15mph /  24.1km/h 37% 0in /  0.0mm
14:04 88.9 °F /  31.6 °C 57.7 °F /  14.3 °C 29.8in /  1007.8hPa ENE 9.2mph /  14.8km/h 11.5mph /  18.5km/h 35% 0in /  0.0mm
14:09 89.1 °F /  31.7 °C 60.1 °F /  15.6 °C 29.8in /  1007.8hPa SE 6.9mph /  11.1km/h 17.3mph /  27.8km/h 38% 0in /  0.0mm
14:14 89.1 °F /  31.7 °C 61 °F /  16.1 °C 29.8in /  1007.8hPa SE 6.9mph /  11.1km/h 12.7mph /  20.4km/h 39% 0in /  0.0mm
14:19 88.9 °F /  31.6 °C 60.1 °F /  15.6 °C 29.8in /  1007.6hPa ESE 8.7mph /  14km/h 13.8mph /  22.2km/h 38% 0in /  0.0mm
14:24 88.7 °F /  31.5 °C 58.3 °F /  14.6 °C 29.8in /  1007.6hPa SE 8.7mph /  14km/h 12.7mph /  20.4km/h 36% 0in /  0.0mm
14:29 88.5 °F /  31.4 °C 56.7 °F /  13.7 °C 29.8in /  1007.6hPa ESE 8.1mph /  13km/h 8.1mph /  13km/h 34% 0in /  0.0mm
14:34 89.1 °F /  31.7 °C 57.7 °F /  14.3 °C 29.8in /  1007.5hPa SE 8.1mph /  13km/h 5.8mph /  9.3km/h 35% 0in /  0.0mm
14:39 89.2 °F /  31.8 °C 59.5 °F /  15.3 °C 29.8in /  1007.5hPa SE 5.4mph /  8.7km/h 18.4mph /  29.6km/h 37% 0in /  0.0mm
14:44 89.2 °F /  31.8 °C 59.5 °F /  15.3 °C 29.8in /  1007.5hPa SE 5.4mph /  8.7km/h 10.4mph /  16.7km/h 37% 0in /  0.0mm
14:49 89.1 °F /  31.7 °C 59.4 °F /  15.2 °C 29.8in /  1007.5hPa SSE 8.1mph /  13km/h 8.1mph /  13km/h 37% 0in /  0.0mm
14:54 89.1 °F /  31.7 °C 60.1 °F /  15.6 °C 29.8in /  1007.5hPa SE 8.1mph /  13km/h 15.9mph /  25.6km/h 38% 0in /  0.0mm
14:59 89.4 °F /  31.9 °C 59.7 °F /  15.4 °C 29.8in /  1007.5hPa Sur 8.1mph /  13km/h 12.7mph /  20.4km/h 37% 0in /  0.0mm
15:04 89.1 °F /  31.7 °C 59.4 °F /  15.2 °C 29.8in /  1007.5hPa SSE 8.1mph /  13km/h 12.7mph /  20.4km/h 37% 0in /  0.0mm
15:09 88.9 °F /  31.6 °C 59.2 °F /  15.1 °C 29.8in /  1007.5hPa ESE 9.2mph /  14.8km/h 16.1mph /  25.9km/h 37% 0in /  0.0mm
15:14 88.9 °F /  31.6 °C 59.2 °F /  15.1 °C 29.8in /  1007.5hPa ESE 9.2mph /  14.8km/h 16.1mph /  25.9km/h 37% 0in /  0.0mm
15:19 89.2 °F /  31.8 °C 59.5 °F /  15.3 °C 29.7in /  1007.3hPa SE 11.2mph /  18km/h 12.7mph /  20.4km/h 37% 0in /  0.0mm
15:22 89.4 °F /  31.9 °C 59 °F /  15 °C 29.7in /  1007.3hPa SE 11.2mph /  18km/h 15mph /  24.1km/h 36% 0in /  0.0mm
17:34 89.6 °F /  32 °C 58.3 °F /  14.6 °C 29.7in /  1006.4hPa SE 10.7mph /  17.2km/h 11.4mph /  18.3km/h 35% 0in /  0.0mm
17:39 89.8 °F /  32.1 °C 57.7 °F /  14.3 °C 29.7in /  1006.4hPa Este 10.2mph /  16.4km/h 18.4mph /  29.6km/h 34% 0in /  0.0mm
17:44 89.6 °F /  32 °C 57.6 °F /  14.2 °C 29.7in /  1006.4hPa SE 10.2mph /  16.4km/h 16.1mph /  25.9km/h 34% 0in /  0.0mm
17:49 89.6 °F /  32 °C 56.7 °F /  13.7 °C 29.7in /  1006.4hPa SSE 10.2mph /  16.4km/h 18.4mph /  29.6km/h 33% 0in /  0.0mm
17:54 89.8 °F /  32.1 °C 57.7 °F /  14.3 °C 29.7in /  1006.4hPa SE 10.2mph /  16.4km/h 15mph /  24.1km/h 34% 0in /  0.0mm
17:59 89.4 °F /  31.9 °C 56.5 °F /  13.6 °C 29.7in /  1006.4hPa SSE 11.4mph /  18.3km/h 16.1mph /  25.9km/h 33% 0in /  0.0mm
18:04 89.6 °F /  32 °C 56.7 °F /  13.7 °C 29.7in /  1006.5hPa SE 11.4mph /  18.3km/h 15.9mph /  25.6km/h 33% 0in /  0.0mm
18:09 89.4 °F /  31.9 °C 56.5 °F /  13.6 °C 29.7in /  1006.5hPa SSE 10.2mph /  16.4km/h 15mph /  24.1km/h 33% 0in /  0.0mm
18:14 89.2 °F /  31.8 °C 56.5 °F /  13.6 °C 29.7in /  1006.5hPa SE 10.2mph /  16.4km/h 18.4mph /  29.6km/h 33% 0in /  0.0mm
18:19 89.4 °F /  31.9 °C 55.8 °F /  13.2 °C 29.7in /  1006.4hPa ESE 11.2mph /  18km/h 15.2mph /  24.5km/h 32% 0in /  0.0mm
18:24 89.6 °F /  32 °C 55.8 °F /  13.2 °C 29.7in /  1006.4hPa Este 11.2mph /  18km/h 12.7mph /  20.4km/h 32% 0in /  0.0mm
18:29 89.8 °F /  32.1 °C 55.9 °F /  13.3 °C 29.7in /  1006.4hPa ESE 10.7mph /  17.2km/h 15mph /  24.1km/h 32% 0in /  0.0mm
18:34 89.8 °F /  32.1 °C 55.9 °F /  13.3 °C 29.7in /  1006.4hPa ENE 10.7mph /  17.2km/h 13.8mph /  22.2km/h 32% 0in /  0.0mm
18:39 89.4 °F /  31.9 °C 55.8 °F /  13.2 °C 29.7in /  1006.4hPa SSE 9.7mph /  15.6km/h 16.1mph /  25.9km/h 32% 0in /  0.0mm
18:44 89.2 °F /  31.8 °C 56.5 °F /  13.6 °C 29.7in /  1006.4hPa ESE 9.7mph /  15.6km/h 14mph /  22.5km/h 33% 0in /  0.0mm
18:49 89.1 °F /  31.7 °C 56.1 °F /  13.4 °C 29.7in /  1006.3hPa SSE 10.7mph /  17.2km/h 13.8mph /  22.2km/h 33% 0in /  0.0mm
18:54 88.5 °F /  31.4 °C 55.8 °F /  13.2 °C 29.7in /  1006.3hPa SE 10.7mph /  17.2km/h 19.6mph /  31.5km/h 33% 0in /  0.0mm
18:59 88.2 °F /  31.2 °C 56.3 °F /  13.5 °C 29.7in /  1006.3hPa SE 12.3mph /  19.8km/h 16.1mph /  25.9km/h 34% 0in /  0.0mm
19:04 88.2 °F /  31.2 °C 56.3 °F /  13.5 °C 29.7in /  1006.4hPa SE 12.3mph /  19.8km/h 13.8mph /  22.2km/h 34% 0in /  0.0mm
19:09 88.2 °F /  31.2 °C 56.3 °F /  13.5 °C 29.7in /  1006.4hPa Este 11.4mph /  18.3km/h 15mph /  24.1km/h 34% 0in /  0.0mm
19:14 88.2 °F /  31.2 °C 54.7 °F /  12.6 °C 29.7in /  1006.4hPa SE 11.4mph /  18.3km/h 17.3mph /  27.8km/h 32% 0in /  0.0mm
19:19 88.2 °F /  31.2 °C 55.4 °F /  13 °C 29.7in /  1006.5hPa SE 11.2mph /  18km/h 19.6mph /  31.5km/h 33% 0in /  0.0mm
19:24 87.8 °F /  31 °C 54.3 °F /  12.4 °C 29.7in /  1006.5hPa ESE 11.2mph /  18km/h 17.3mph /  27.8km/h 32% 0in /  0.0mm
19:29 87.8 °F /  31 °C 54.3 °F /  12.4 °C 29.7in /  1006.5hPa ENE 11.4mph /  18.3km/h 18.4mph /  29.6km/h 32% 0in /  0.0mm
19:34 87.8 °F /  31 °C 55.9 °F /  13.3 °C 29.7in /  1006.7hPa ESE 11.4mph /  18.3km/h 17.3mph /  27.8km/h 34% 0in /  0.0mm
19:39 87.6 °F /  30.9 °C 55.8 °F /  13.2 °C 29.7in /  1006.7hPa SE 11.2mph /  18km/h 20.7mph /  33.3km/h 34% 0in /  0.0mm
19:44 87.6 °F /  30.9 °C 56.7 °F /  13.7 °C 29.7in /  1006.7hPa ESE 11.2mph /  18km/h 16.1mph /  25.9km/h 35% 0in /  0.0mm
19:49 87.6 °F /  30.9 °C 57.4 °F /  14.1 °C 29.7in /  1006.8hPa SSE 10mph /  16.1km/h 10.4mph /  16.7km/h 36% 0in /  0.0mm
19:54 87.6 °F /  30.9 °C 56.7 °F /  13.7 °C 29.7in /  1006.8hPa SE 10mph /  16.1km/h 15.6mph /  25.1km/h 35% 0in /  0.0mm
19:59 87.4 °F /  30.8 °C 56.5 °F /  13.6 °C 29.7in /  1006.8hPa ESE 8.1mph /  13km/h 16.3mph /  26.2km/h 35% 0in /  0.0mm
20:04 87.4 °F /  30.8 °C 56.5 °F /  13.6 °C 29.7in /  1007.0hPa SE 8.1mph /  13km/h 12.7mph /  20.4km/h 35% 0in /  0.0mm
20:09 87.3 °F /  30.7 °C 57 °F /  13.9 °C 29.7in /  1007.0hPa Este 8.1mph /  13km/h 8.7mph /  14km/h 36% 0in /  0.0mm
20:14 87.3 °F /  30.7 °C 56.3 °F /  13.5 °C 29.7in /  1007.0hPa SSO 8.1mph /  13km/h 13.8mph /  22.2km/h 35% 0in /  0.0mm
20:19 87.1 °F /  30.6 °C 56.1 °F /  13.4 °C 29.7in /  1007.0hPa SSE 8.1mph /  13km/h 13.8mph /  22.2km/h 35% 0in /  0.0mm
20:24 87.1 °F /  30.6 °C 56.1 °F /  13.4 °C 29.7in /  1007.0hPa SSE 8.1mph /  13km/h 10.4mph /  16.7km/h 35% 0in /  0.0mm
20:29 87.1 °F /  30.6 °C 56.8 °F /  13.8 °C 29.7in /  1007.0hPa SE 6.4mph /  10.3km/h 8.1mph /  13km/h 36% 0in /  0.0mm
20:34 86.7 °F /  30.4 °C 56.7 °F /  13.7 °C 29.7in /  1007.2hPa SSE 6.4mph /  10.3km/h 11.5mph /  18.5km/h 36% 0in /  0.0mm
20:39 86.5 °F /  30.3 °C 57.2 °F /  14 °C 29.7in /  1007.2hPa SSE 6.4mph /  10.3km/h 9.7mph /  15.6km/h 37% 0in /  0.0mm
20:44 86.2 °F /  30.1 °C 57.6 °F /  14.2 °C 29.7in /  1007.2hPa Sur 6.4mph /  10.3km/h 8.1mph /  13km/h 38% 0in /  0.0mm
20:49 86 °F /  30 °C 57.4 °F /  14.1 °C 29.7in /  1007.3hPa Sur 6.9mph /  11.1km/h 8.1mph /  13km/h 38% 0in /  0.0mm
20:54 85.8 °F /  29.9 °C 57.9 °F /  14.4 °C 29.7in /  1007.3hPa SE 6.9mph /  11.1km/h 9.2mph /  14.8km/h 39% 0in /  0.0mm
20:59 85.6 °F /  29.8 °C 57.7 °F /  14.3 °C 29.7in /  1007.3hPa SE 6.4mph /  10.3km/h 8.1mph /  13km/h 39% 0in /  0.0mm
21:04 85.5 °F /  29.7 °C 57.7 °F /  14.3 °C 29.8in /  1007.4hPa SSE 6.4mph /  10.3km/h 6.9mph /  11.1km/h 39% 0in /  0.0mm
21:09 85.3 °F /  29.6 °C 58.3 °F /  14.6 °C 29.8in /  1007.4hPa SSO 5.9mph /  9.5km/h 10.4mph /  16.7km/h 40% 0in /  0.0mm
21:14 84.9 °F /  29.4 °C 57.9 °F /  14.4 °C 29.8in /  1007.4hPa ESE 5.9mph /  9.5km/h 11.5mph /  18.5km/h 40% 0in /  0.0mm
21:19 84.9 °F /  29.4 °C 57.9 °F /  14.4 °C 29.8in /  1007.5hPa Sur 7.4mph /  11.9km/h 10.4mph /  16.7km/h 40% 0in /  0.0mm
21:24 84.6 °F /  29.2 °C 58.3 °F /  14.6 °C 29.8in /  1007.5hPa Sur 7.4mph /  11.9km/h 12.7mph /  20.4km/h 41% 0in /  0.0mm
21:29 84.4 °F /  29.1 °C 58.1 °F /  14.5 °C 29.8in /  1007.5hPa SE 9.2mph /  14.8km/h 11.5mph /  18.5km/h 41% 0in /  0.0mm
21:34 84.4 °F /  29.1 °C 57.4 °F /  14.1 °C 29.8in /  1007.8hPa SSE 9.2mph /  14.8km/h 10.4mph /  16.7km/h 40% 0in /  0.0mm
21:39 84.4 °F /  29.1 °C 56.7 °F /  13.7 °C 29.8in /  1007.8hPa ESE 7.6mph /  12.2km/h 9.2mph /  14.8km/h 39% 0in /  0.0mm
21:44 84.4 °F /  29.1 °C 56.7 °F /  13.7 °C 29.8in /  1007.8hPa SE 7.6mph /  12.2km/h 8.1mph /  13km/h 39% 0in /  0.0mm
21:49 84.4 °F /  29.1 °C 56.7 °F /  13.7 °C 29.8in /  1007.9hPa SE 6.9mph /  11.1km/h 8.1mph /  13km/h 39% 0in /  0.0mm
21:54 84.2 °F /  29 °C 56.7 °F /  13.7 °C 29.8in /  1007.9hPa ONO 6.9mph /  11.1km/h 3.5mph /  5.6km/h 39% 0in /  0.0mm
21:59 84 °F /  28.9 °C 56.5 °F /  13.6 °C 29.8in /  1007.9hPa NO 3.6mph /  5.8km/h 4.6mph /  7.4km/h 39% 0in /  0.0mm
22:04 84 °F /  28.9 °C 56.5 °F /  13.6 °C 29.8in /  1008.0hPa NE 3.6mph /  5.8km/h 3.5mph /  5.6km/h 39% 0in /  0.0mm
22:09 83.8 °F /  28.8 °C 56.1 °F /  13.4 °C 29.8in /  1008.0hPa Este 1.8mph /  2.9km/h 3.6mph /  5.8km/h 39% 0in /  0.0mm
22:14 83.8 °F /  28.8 °C 56.8 °F /  13.8 °C 29.8in /  1008.0hPa NNE 1.8mph /  2.9km/h 5.8mph /  9.3km/h 40% 0in /  0.0mm
22:19 83.7 °F /  28.7 °C 56.8 °F /  13.8 °C 29.8in /  1008.4hPa NE 3.6mph /  5.8km/h 4.6mph /  7.4km/h 40% 0in /  0.0mm
22:24 83.5 °F /  28.6 °C 57.4 °F /  14.1 °C 29.8in /  1008.4hPa NE 3.6mph /  5.8km/h 2.4mph /  3.9km/h 41% 0in /  0.0mm
22:29 83.5 °F /  28.6 °C 57.4 °F /  14.1 °C 29.8in /  1008.4hPa NNE 2.4mph /  3.9km/h 4.6mph /  7.4km/h 41% 0in /  0.0mm
22:34 82.9 °F /  28.3 °C 60.1 °F /  15.6 °C 29.8in /  1008.7hPa NE 2.4mph /  3.9km/h 8.1mph /  13km/h 46% 0in /  0.0mm
22:39 81.7 °F /  27.6 °C 62.2 °F /  16.8 °C 29.8in /  1008.7hPa NE 5.2mph /  8.4km/h 8.1mph /  13km/h 52% 0in /  0.0mm
22:44 81 °F /  27.2 °C 63.9 °F /  17.7 °C 29.8in /  1008.7hPa NNE 5.2mph /  8.4km/h 6.9mph /  11.1km/h 56% 0in /  0.0mm
22:49 80.4 °F /  26.9 °C 64.8 °F /  18.2 °C 29.8in /  1008.9hPa North 5.4mph /  8.7km/h 5.8mph /  9.3km/h 59% 0in /  0.0mm
22:54 80.1 °F /  26.7 °C 65.8 °F /  18.8 °C 29.8in /  1008.9hPa NNE 5.4mph /  8.7km/h 8.5mph /  13.7km/h 62% 0in /  0.0mm
22:59 79.5 °F /  26.4 °C 66.4 °F /  19.1 °C 29.8in /  1008.9hPa NE 5.9mph /  9.5km/h 9.2mph /  14.8km/h 64% 0in /  0.0mm
23:04 79.2 °F /  26.2 °C 66.4 °F /  19.1 °C 29.8in /  1009.0hPa NNE 5.9mph /  9.5km/h 7.4mph /  11.9km/h 65% 0in /  0.0mm
23:09 79 °F /  26.1 °C 67.1 °F /  19.5 °C 29.8in /  1009.0hPa NE 6.2mph /  10km/h 10.4mph /  16.7km/h 67% 0in /  0.0mm
23:14 78.6 °F /  25.9 °C 67.3 °F /  19.6 °C 29.8in /  1009.0hPa NNE 6.2mph /  10km/h 10.4mph /  16.7km/h 68% 0in /  0.0mm
23:19 78.3 °F /  25.7 °C 67.3 °F /  19.6 °C 29.8in /  1009.0hPa NE 7.4mph /  11.9km/h 9.2mph /  14.8km/h 69% 0in /  0.0mm
23:24 78.1 °F /  25.6 °C 67.5 °F /  19.7 °C 29.8in /  1009.0hPa NE 7.4mph /  11.9km/h 10.4mph /  16.7km/h 70% 0in /  0.0mm
23:29 77.7 °F /  25.4 °C 68 °F /  20 °C 29.8in /  1009.0hPa NNE 6.4mph /  10.3km/h 11.5mph /  18.5km/h 72% 0in /  0.0mm
23:34 77.5 °F /  25.3 °C 68.2 °F /  20.1 °C 29.8in /  1009.2hPa NNE 6.4mph /  10.3km/h 13mph /  20.9km/h 73% 0in /  0.0mm
23:39 77.4 °F /  25.2 °C 68.4 °F /  20.2 °C 29.8in /  1009.2hPa NNE 8.1mph /  13km/h 11.4mph /  18.3km/h 74% 0in /  0.0mm
23:44 77.2 °F /  25.1 °C 68.5 °F /  20.3 °C 29.8in /  1009.2hPa North 8.1mph /  13km/h 15mph /  24.1km/h 75% 0in /  0.0mm
23:49 77 °F /  25 °C 68.5 °F /  20.3 °C 29.8in /  1009.2hPa North 8.1mph /  13km/h 10.2mph /  16.4km/h 75% 0in /  0.0mm
23:54 76.8 °F /  24.9 °C 68.7 °F /  20.4 °C 29.8in /  1009.2hPa NNE 8.1mph /  13km/h 9.7mph /  15.6km/h 76% 0in /  0.0mm
23:59 76.6 °F /  24.8 °C 68.9 °F /  20.5 °C 29.8in /  1009.2hPa NNE 8.1mph /  13km/h 11.5mph /  18.5km/h 77% 0in /  0.0mm
Murcia-Puente Tocinos, España
Compliments of Weather Underground - 2.75 mb

La estación de MeteoMurcia.com, publica sus datos en los siguientes proyectos:

Weather Underground PWS IMURCIAP2 Meteoclimatic www.awekas.at

W3Counter
Web Analytics